Oban — PDWJ — position and weather

sailwx.info

Track history (hours):
 
Tides and Currents Weather Stations Pressure Air Temp Water Temp Dewpoint Dewpoint Depression Visibility Wind Speed Wind Dir Waves Ship Positions

Oban

Last reported at 2017-Jun-26 08:30 UTC. Time now 2017-Jun-26 08:41 UTC.
Position N 54°20' E 010°09'.

Length 39 m; draft 2.8 m.

Type: Sailing vessel. MMSI: 246085000.

Date/timePositionNaut miles runAvg speedWind from/ knotsBaromVisibWave heightAir tempDewpointWater temp
2017-Jun-26 08:30N 54°20' E 010°09'0 0.0
2017-Jun-26 07:56N 54°20' E 010°09'0 0.0
2017-Jun-26 07:30N 54°20' E 010°09'0 0.0
2017-Jun-26 06:55N 54°20' E 010°09'0 0.0
2017-Jun-26 06:29N 54°20' E 010°09'0 0.0
2017-Jun-26 05:54N 54°20' E 010°09'0 0.0
2017-Jun-26 01:07N 54°20' E 010°09'0 0.0
2017-Jun-26 01:00N 54°20' E 010°09'0 0.0
2017-Jun-26 00:28N 54°20' E 010°09'0 0.0
2017-Jun-26 00:00N 54°20' E 010°09'0 0.0
2017-Jun-25 23:27N 54°20' E 010°09'0 0.0
2017-Jun-25 23:00N 54°20' E 010°09'0 0.0
2017-Jun-25 22:30N 54°20' E 010°09'0 0.0
2017-Jun-25 21:59N 54°20' E 010°09'0 0.1
2017-Jun-25 21:30N 54°20' E 010°10'0 0.8
2017-Jun-25 21:00N 54°21' E 010°10'1 2.2
2017-Jun-25 20:30N 54°22' E 010°10'2 4.4
2017-Jun-25 20:00N 54°24' E 010°12'1 3.0
2017-Jun-25 19:30N 54°25' E 010°12'1 1.8
2017-Jun-25 19:00N 54°24' E 010°12'2 4.3
2017-Jun-25 18:30N 54°22' E 010°11'2 4.3
2017-Jun-25 18:00N 54°20' E 010°10'0 0.1
2017-Jun-25 17:29N 54°20' E 010°09'0 0.0
2017-Jun-25 16:58N 54°20' E 010°09'0 0.0
2017-Jun-25 16:30N 54°20' E 010°09'0 0.0
2017-Jun-25 15:58N 54°20' E 010°09'0 0.0
2017-Jun-25 15:24N 54°20' E 010°09'0 0.0
2017-Jun-25 15:00N 54°20' E 010°09'0 0.0
2017-Jun-25 13:53N 54°20' E 010°09'0 0.0
2017-Jun-25 13:30N 54°20' E 010°09'0 0.0
2017-Jun-25 12:46N 54°20' E 010°09'0 0.0
2017-Jun-25 12:30N 54°20' E 010°09'0 0.0
2017-Jun-25 12:00N 54°20' E 010°09'0 0.0
2017-Jun-25 11:30N 54°20' E 010°09'0 0.0
2017-Jun-25 11:00N 54°20' E 010°09'0 0.0
2017-Jun-25 01:09N 54°20' E 010°09'0 0.0
2017-Jun-25 00:59N 54°20' E 010°09'0 0.0
2017-Jun-25 00:30N 54°20' E 010°09'0 0.0
2017-Jun-25 00:00N 54°20' E 010°09'0 0.0
2017-Jun-24 23:30N 54°20' E 010°09'0 0.0
2017-Jun-24 22:59N 54°20' E 010°09'0 0.0
2017-Jun-24 22:15N 54°20' E 010°09'0 0.0
2017-Jun-24 22:00N 54°20' E 010°09'0 0.0
2017-Jun-24 21:29N 54°20' E 010°09'0 0.0
2017-Jun-24 20:59N 54°20' E 010°09'0 0.0
2017-Jun-24 20:30N 54°20' E 010°09'0 0.0
2017-Jun-24 20:00N 54°20' E 010°09'0 0.0
2017-Jun-24 19:25N 54°20' E 010°09'0 0.0
2017-Jun-24 18:57N 54°20' E 010°09'0 0.0
2017-Jun-24 18:30N 54°20' E 010°09'0 0.0
2017-Jun-24 17:34N 54°20' E 010°09'0 0.0
2017-Jun-24 17:09N 54°20' E 010°09'0 0.0
2017-Jun-24 16:59N 54°20' E 010°09'0 0.0
2017-Jun-24 16:31N 54°20' E 010°09'0 0.0
2017-Jun-24 16:00N 54°20' E 010°09'0 0.0
2017-Jun-24 15:30N 54°20' E 010°09'1 2.1
2017-Jun-24 15:00N 54°19' E 010°09'0 0.0
2017-Jun-24 14:00N 54°19' E 010°09'2 3.3
2017-Jun-24 13:30N 54°21' E 010°10'2 4.7
2017-Jun-24 13:00N 54°23' E 010°11'  
2017-Jun-22 07:10N 54°20' E 010°09'0 0.0
2017-Jun-22 07:00N 54°20' E 010°09'0 0.0
2017-Jun-22 06:22N 54°20' E 010°09'0 0.0
2017-Jun-22 05:53N 54°20' E 010°09'0 0.0
2017-Jun-22 05:30N 54°20' E 010°09'0 0.0
2017-Jun-22 05:00N 54°20' E 010°09'0 0.0
2017-Jun-22 04:01N 54°20' E 010°09'0 0.0
2017-Jun-22 04:00N 54°20' E 010°09'0 0.0
2017-Jun-22 03:21N 54°20' E 010°09'0 0.0
2017-Jun-22 03:00N 54°20' E 010°09'0 0.0
2017-Jun-22 02:30N 54°20' E 010°09'0 0.0
2017-Jun-22 02:00N 54°20' E 010°09'0 0.0
2017-Jun-22 01:30N 54°20' E 010°09'7 0.5
2017-Jun-21 12:11N 54°26' E 010°14'1 3.9
2017-Jun-21 11:54N 54°27' E 010°14'1 3.8
2017-Jun-21 11:30N 54°29' E 010°15'3 3.6
2017-Jun-21 10:44N 54°32' E 010°14'1 3.0
2017-Jun-21 10:30N 54°32' E 010°13'9 3.9
2017-Jun-21 08:18N 54°40' E 010°06'1 3.7
2017-Jun-21 07:57N 54°40' E 010°04'2 4.5
2017-Jun-21 07:31N 54°41' E 010°01'2 4.3
2017-Jun-21 07:00N 54°41' E 009°57'1 2.5
2017-Jun-21 06:30N 54°39' E 009°56'0 0.0
2017-Jun-21 05:46N 54°39' E 009°56'0 0.0
2017-Jun-21 05:30N 54°39' E 009°56'0 0.0
2017-Jun-21 05:00N 54°39' E 009°56'0 0.0
2017-Jun-21 04:30N 54°39' E 009°56'0 0.0
2017-Jun-21 04:00N 54°39' E 009°56'0 0.0
2017-Jun-21 03:30N 54°39' E 009°56'0 0.0
2017-Jun-21 03:00N 54°39' E 009°56'0 0.0
2017-Jun-21 02:30N 54°39' E 009°56'0 0.0
2017-Jun-21 02:00N 54°39' E 009°56'0 0.0
2017-Jun-21 01:30N 54°39' E 009°56'0 0.0
2017-Jun-21 01:00N 54°39' E 009°56'0 0.0
2017-Jun-21 00:30N 54°39' E 009°56'0 0.0
2017-Jun-21 00:00N 54°39' E 009°56'0 0.0
2017-Jun-20 23:30N 54°39' E 009°56'0 0.0
2017-Jun-20 23:00N 54°39' E 009°56'0 0.0
2017-Jun-20 22:30N 54°39' E 009°56'0 0.0
2017-Jun-20 22:00N 54°39' E 009°56'0 0.0
2017-Jun-20 21:30N 54°39' E 009°56'0 0.0
2017-Jun-20 21:00N 54°39' E 009°56'0 0.0
2017-Jun-20 20:30N 54°39' E 009°56'0 0.0
2017-Jun-20 20:00N 54°39' E 009°56'0 0.0
2017-Jun-20 19:30N 54°39' E 009°56'0 0.0
2017-Jun-20 19:00N 54°39' E 009°56'0 0.0
2017-Jun-20 18:30N 54°39' E 009°56'0 0.0
2017-Jun-20 18:00N 54°39' E 009°56'0 0.0
2017-Jun-20 17:30N 54°39' E 009°56'0 0.0
2017-Jun-20 17:00N 54°39' E 009°56'0 0.0
2017-Jun-20 16:30N 54°39' E 009°56'0 0.0
2017-Jun-20 16:00N 54°39' E 009°56'0 0.0
2017-Jun-20 15:30N 54°39' E 009°56'0 0.0
2017-Jun-20 15:00N 54°39' E 009°56'1 1.2
2017-Jun-20 14:30N 54°40' E 009°56'  
Track history (hours):
 
Tides and Currents Weather Stations Pressure Air Temp Water Temp Dewpoint Dewpoint Depression Visibility Wind Speed Wind Dir Waves Ship Positions

Oban

Last reported at 2017-Jun-26 08:30 UTC. Time now 2017-Jun-26 08:41 UTC.
Position N 54°20' E 010°09'.

Length 39 m; draft 2.8 m.

Type: Sailing vessel. MMSI: 246085000.

Date/timePositionNaut miles runAvg speedWind from/ knotsBaromVisibWave heightAir tempDewpointWater temp
2017-Jun-26 08:30N 54°20' E 010°09'0 0.0
2017-Jun-26 07:56N 54°20' E 010°09'0 0.0
2017-Jun-26 07:30N 54°20' E 010°09'0 0.0
2017-Jun-26 06:55N 54°20' E 010°09'0 0.0
2017-Jun-26 06:29N 54°20' E 010°09'0 0.0
2017-Jun-26 05:54N 54°20' E 010°09'0 0.0
2017-Jun-26 01:07N 54°20' E 010°09'0 0.0
2017-Jun-26 01:00N 54°20' E 010°09'0 0.0
2017-Jun-26 00:28N 54°20' E 010°09'0 0.0
2017-Jun-26 00:00N 54°20' E 010°09'0 0.0
2017-Jun-25 23:27N 54°20' E 010°09'0 0.0
2017-Jun-25 23:00N 54°20' E 010°09'0 0.0
2017-Jun-25 22:30N 54°20' E 010°09'0 0.0
2017-Jun-25 21:59N 54°20' E 010°09'0 0.1
2017-Jun-25 21:30N 54°20' E 010°10'0 0.8
2017-Jun-25 21:00N 54°21' E 010°10'1 2.2
2017-Jun-25 20:30N 54°22' E 010°10'2 4.4
2017-Jun-25 20:00N 54°24' E 010°12'1 3.0
2017-Jun-25 19:30N 54°25' E 010°12'1 1.8
2017-Jun-25 19:00N 54°24' E 010°12'2 4.3
2017-Jun-25 18:30N 54°22' E 010°11'2 4.3
2017-Jun-25 18:00N 54°20' E 010°10'0 0.1
2017-Jun-25 17:29N 54°20' E 010°09'0 0.0
2017-Jun-25 16:58N 54°20' E 010°09'0 0.0
2017-Jun-25 16:30N 54°20' E 010°09'0 0.0
2017-Jun-25 15:58N 54°20' E 010°09'0 0.0
2017-Jun-25 15:24N 54°20' E 010°09'0 0.0
2017-Jun-25 15:00N 54°20' E 010°09'0 0.0
2017-Jun-25 13:53N 54°20' E 010°09'0 0.0
2017-Jun-25 13:30N 54°20' E 010°09'0 0.0
2017-Jun-25 12:46N 54°20' E 010°09'0 0.0
2017-Jun-25 12:30N 54°20' E 010°09'0 0.0
2017-Jun-25 12:00N 54°20' E 010°09'0 0.0
2017-Jun-25 11:30N 54°20' E 010°09'0 0.0
2017-Jun-25 11:00N 54°20' E 010°09'0 0.0
2017-Jun-25 01:09N 54°20' E 010°09'0 0.0
2017-Jun-25 00:59N 54°20' E 010°09'0 0.0
2017-Jun-25 00:30N 54°20' E 010°09'0 0.0
2017-Jun-25 00:00N 54°20' E 010°09'0 0.0
2017-Jun-24 23:30N 54°20' E 010°09'0 0.0
2017-Jun-24 22:59N 54°20' E 010°09'0 0.0
2017-Jun-24 22:15N 54°20' E 010°09'0 0.0
2017-Jun-24 22:00N 54°20' E 010°09'0 0.0
2017-Jun-24 21:29N 54°20' E 010°09'0 0.0
2017-Jun-24 20:59N 54°20' E 010°09'0 0.0
2017-Jun-24 20:30N 54°20' E 010°09'0 0.0
2017-Jun-24 20:00N 54°20' E 010°09'0 0.0
2017-Jun-24 19:25N 54°20' E 010°09'0 0.0
2017-Jun-24 18:57N 54°20' E 010°09'0 0.0
2017-Jun-24 18:30N 54°20' E 010°09'0 0.0
2017-Jun-24 17:34N 54°20' E 010°09'0 0.0
2017-Jun-24 17:09N 54°20' E 010°09'0 0.0
2017-Jun-24 16:59N 54°20' E 010°09'0 0.0
2017-Jun-24 16:31N 54°20' E 010°09'0 0.0
2017-Jun-24 16:00N 54°20' E 010°09'0 0.0
2017-Jun-24 15:30N 54°20' E 010°09'1 2.1
2017-Jun-24 15:00N 54°19' E 010°09'0 0.0
2017-Jun-24 14:00N 54°19' E 010°09'2 3.3
2017-Jun-24 13:30N 54°21' E 010°10'2 4.7
2017-Jun-24 13:00N 54°23' E 010°11'  
2017-Jun-22 07:10N 54°20' E 010°09'0 0.0
2017-Jun-22 07:00N 54°20' E 010°09'0 0.0
2017-Jun-22 06:22N 54°20' E 010°09'0 0.0
2017-Jun-22 05:53N 54°20' E 010°09'0 0.0
2017-Jun-22 05:30N 54°20' E 010°09'0 0.0
2017-Jun-22 05:00N 54°20' E 010°09'0 0.0
2017-Jun-22 04:01N 54°20' E 010°09'0 0.0
2017-Jun-22 04:00N 54°20' E 010°09'0 0.0
2017-Jun-22 03:21N 54°20' E 010°09'0 0.0
2017-Jun-22 03:00N 54°20' E 010°09'0 0.0
2017-Jun-22 02:30N 54°20' E 010°09'0 0.0
2017-Jun-22 02:00N 54°20' E 010°09'0 0.0
2017-Jun-22 01:30N 54°20' E 010°09'7 0.5
2017-Jun-21 12:11N 54°26' E 010°14'1 3.9
2017-Jun-21 11:54N 54°27' E 010°14'1 3.8
2017-Jun-21 11:30N 54°29' E 010°15'3 3.6
2017-Jun-21 10:44N 54°32' E 010°14'1 3.0
2017-Jun-21 10:30N 54°32' E 010°13'9 3.9
2017-Jun-21 08:18N 54°40' E 010°06'1 3.7
2017-Jun-21 07:57N 54°40' E 010°04'2 4.5
2017-Jun-21 07:31N 54°41' E 010°01'2 4.3
2017-Jun-21 07:00N 54°41' E 009°57'1 2.5
2017-Jun-21 06:30N 54°39' E 009°56'0 0.0
2017-Jun-21 05:46N 54°39' E 009°56'0 0.0
2017-Jun-21 05:30N 54°39' E 009°56'0 0.0
2017-Jun-21 05:00N 54°39' E 009°56'0 0.0
2017-Jun-21 04:30N 54°39' E 009°56'0 0.0
2017-Jun-21 04:00N 54°39' E 009°56'0 0.0
2017-Jun-21 03:30N 54°39' E 009°56'0 0.0
2017-Jun-21 03:00N 54°39' E 009°56'0 0.0
2017-Jun-21 02:30N 54°39' E 009°56'0 0.0
2017-Jun-21 02:00N 54°39' E 009°56'0 0.0
2017-Jun-21 01:30N 54°39' E 009°56'0 0.0
2017-Jun-21 01:00N 54°39' E 009°56'0 0.0
2017-Jun-21 00:30N 54°39' E 009°56'0 0.0
2017-Jun-21 00:00N 54°39' E 009°56'0 0.0
2017-Jun-20 23:30N 54°39' E 009°56'0 0.0
2017-Jun-20 23:00N 54°39' E 009°56'0 0.0
2017-Jun-20 22:30N 54°39' E 009°56'0 0.0
2017-Jun-20 22:00N 54°39' E 009°56'0 0.0
2017-Jun-20 21:30N 54°39' E 009°56'0 0.0
2017-Jun-20 21:00N 54°39' E 009°56'0 0.0
2017-Jun-20 20:30N 54°39' E 009°56'0 0.0
2017-Jun-20 20:00N 54°39' E 009°56'0 0.0
2017-Jun-20 19:30N 54°39' E 009°56'0 0.0
2017-Jun-20 19:00N 54°39' E 009°56'0 0.0
2017-Jun-20 18:30N 54°39' E 009°56'0 0.0
2017-Jun-20 18:00N 54°39' E 009°56'0 0.0
2017-Jun-20 17:30N 54°39' E 009°56'0 0.0
2017-Jun-20 17:00N 54°39' E 009°56'0 0.0
2017-Jun-20 16:30N 54°39' E 009°56'0 0.0
2017-Jun-20 16:00N 54°39' E 009°56'0 0.0
2017-Jun-20 15:30N 54°39' E 009°56'0 0.0
2017-Jun-20 15:00N 54°39' E 009°56'1 1.2
2017-Jun-20 14:30N 54°40' E 009°56'  

Dump ship's entire track history